Skye — WDG4178 — position and weather

sailwx.info

Track history (hours):
 
Tides and Currents Weather Stations Pressure Air Temp Water Temp Dewpoint Dewpoint Depression Visibility Wind Speed Wind Dir Waves Ship Positions

Skye

Owner: Worthington, Ralph, New York, NY. More information available from US FCC via Universal Licensing System and Coast Guard Vessel Documentation Center.

Last reported at 2015-Jul-07 16:24 UTC. Time now 2015-Jul-07 19:49 UTC.
Position N 38°47' E 001°27'.

Length 13 m.

Type: Sailing vessel. MMSI: 367533820.

Date/timePositionNaut miles runAvg speedWind from/ knotsBaromVisibWave heightAir tempDewpointWater temp
2015-Jul-07 16:24N 38°47' E 001°27'8 9.0
2015-Jul-07 15:32N 38°41' E 001°35'9 2.2
2015-Jul-07 11:23N 38°44' E 001°23'3 0.1
2015-Jul-06 15:16N 38°46' E 001°26'0 0.0
2015-Jul-06 12:33N 38°46' E 001°26'5 4.3
2015-Jul-06 11:30N 38°48' E 001°21'  
2015-Jul-02 08:24N 38°49' E 001°21'6 2.0
2015-Jul-02 05:29N 38°53' E 001°26'7 6.1
2015-Jul-02 04:20N 38°46' E 001°25'4 0.1
2015-Jun-30 19:10N 38°51' E 001°26'  
Track history (hours):
 
Tides and Currents Weather Stations Pressure Air Temp Water Temp Dewpoint Dewpoint Depression Visibility Wind Speed Wind Dir Waves Ship Positions

Skye

Owner: Worthington, Ralph, New York, NY. More information available from US FCC via Universal Licensing System and Coast Guard Vessel Documentation Center.

Last reported at 2015-Jul-07 16:24 UTC. Time now 2015-Jul-07 19:49 UTC.
Position N 38°47' E 001°27'.

Length 13 m.

Type: Sailing vessel. MMSI: 367533820.

Date/timePositionNaut miles runAvg speedWind from/ knotsBaromVisibWave heightAir tempDewpointWater temp
2015-Jul-07 16:24N 38°47' E 001°27'8 9.0
2015-Jul-07 15:32N 38°41' E 001°35'9 2.2
2015-Jul-07 11:23N 38°44' E 001°23'3 0.1
2015-Jul-06 15:16N 38°46' E 001°26'0 0.0
2015-Jul-06 12:33N 38°46' E 001°26'5 4.3
2015-Jul-06 11:30N 38°48' E 001°21'  
2015-Jul-02 08:24N 38°49' E 001°21'6 2.0
2015-Jul-02 05:29N 38°53' E 001°26'7 6.1
2015-Jul-02 04:20N 38°46' E 001°25'4 0.1
2015-Jun-30 19:10N 38°51' E 001°26'  

Dump ship's entire track history